sensor_id;sensor_type;location;lat;lon;timestamp;pressure;altitude;pressure_sealevel;temperature;humidity
66703;BME280;60933;46.398;-63.798;2023-11-22T00:01:13;103133.81;;;-2.24;78.99
66703;BME280;60933;46.398;-63.798;2023-11-22T00:03:39;103126.31;;;-2.22;78.84
66703;BME280;60933;46.398;-63.798;2023-11-22T00:06:05;103120.38;;;-2.23;78.29
66703;BME280;60933;46.398;-63.798;2023-11-22T00:08:32;103117.09;;;-2.21;77.75
66703;BME280;60933;46.398;-63.798;2023-11-22T00:10:59;103119.25;;;-2.14;76.42
66703;BME280;60933;46.398;-63.798;2023-11-22T00:13:25;103132.19;;;-2.10;76.76
66703;BME280;60933;46.398;-63.798;2023-11-22T00:15:51;103142.50;;;-2.07;76.88
66703;BME280;60933;46.398;-63.798;2023-11-22T00:18:17;103139.22;;;-2.05;76.97
66703;BME280;60933;46.398;-63.798;2023-11-22T00:20:43;103130.84;;;-2.04;76.73
66703;BME280;60933;46.398;-63.798;2023-11-22T00:23:09;103136.00;;;-2.03;76.33
66703;BME280;60933;46.398;-63.798;2023-11-22T00:25:36;103144.47;;;-2.02;77.09
66703;BME280;60933;46.398;-63.798;2023-11-22T00:28:02;103136.13;;;-2.01;75.95
66703;BME280;60933;46.398;-63.798;2023-11-22T00:30:28;103139.63;;;-1.99;76.51
66703;BME280;60933;46.398;-63.798;2023-11-22T00:32:54;103137.88;;;-2.00;75.93
66703;BME280;60933;46.398;-63.798;2023-11-22T00:35:20;103131.44;;;-1.95;75.98
66703;BME280;60933;46.398;-63.798;2023-11-22T00:37:46;103134.84;;;-1.95;75.90
66703;BME280;60933;46.398;-63.798;2023-11-22T00:40:12;103133.22;;;-1.94;75.64
66703;BME280;60933;46.398;-63.798;2023-11-22T00:42:39;103134.75;;;-1.96;75.67
66703;BME280;60933;46.398;-63.798;2023-11-22T00:45:09;103135.75;;;-1.94;75.43
66703;BME280;60933;46.398;-63.798;2023-11-22T00:47:36;103127.16;;;-1.96;75.10
66703;BME280;60933;46.398;-63.798;2023-11-22T00:50:03;103133.22;;;-1.94;75.39
66703;BME280;60933;46.398;-63.798;2023-11-22T00:52:31;103120.25;;;-1.99;74.57
66703;BME280;60933;46.398;-63.798;2023-11-22T00:54:57;103118.00;;;-1.94;74.87
66703;BME280;60933;46.398;-63.798;2023-11-22T00:57:23;103116.25;;;-1.95;74.90
66703;BME280;60933;46.398;-63.798;2023-11-22T00:59:49;103113.63;;;-1.97;74.93
66703;BME280;60933;46.398;-63.798;2023-11-22T01:02:16;103115.28;;;-1.97;74.85
66703;BME280;60933;46.398;-63.798;2023-11-22T01:04:42;103107.50;;;-2.00;75.18
66703;BME280;60933;46.398;-63.798;2023-11-22T01:07:09;103097.38;;;-2.00;75.19
66703;BME280;60933;46.398;-63.798;2023-11-22T01:09:35;103098.91;;;-2.02;74.90
66703;BME280;60933;46.398;-63.798;2023-11-22T01:12:01;103102.22;;;-2.03;75.16
66703;BME280;60933;46.398;-63.798;2023-11-22T01:14:28;103095.00;;;-2.11;74.75
66703;BME280;60933;46.398;-63.798;2023-11-22T01:16:55;103101.25;;;-2.05;74.94
66703;BME280;60933;46.398;-63.798;2023-11-22T01:19:21;103081.50;;;-2.11;74.18
66703;BME280;60933;46.398;-63.798;2023-11-22T01:21:47;103086.66;;;-2.10;73.82
66703;BME280;60933;46.398;-63.798;2023-11-22T01:24:13;103083.91;;;-2.13;74.07
66703;BME280;60933;46.398;-63.798;2023-11-22T01:26:39;103087.78;;;-2.18;75.25
66703;BME280;60933;46.398;-63.798;2023-11-22T01:29:05;103092.66;;;-2.21;75.13
66703;BME280;60933;46.398;-63.798;2023-11-22T01:31:31;103104.44;;;-2.21;75.01
66703;BME280;60933;46.398;-63.798;2023-11-22T01:33:59;103092.25;;;-2.27;74.85
66703;BME280;60933;46.398;-63.798;2023-11-22T01:36:26;103081.13;;;-2.29;74.08
66703;BME280;60933;46.398;-63.798;2023-11-22T01:38:53;103071.59;;;-2.33;73.55
66703;BME280;60933;46.398;-63.798;2023-11-22T01:41:20;103058.88;;;-2.35;74.47
66703;BME280;60933;46.398;-63.798;2023-11-22T01:43:47;103063.63;;;-2.40;74.55
66703;BME280;60933;46.398;-63.798;2023-11-22T01:46:30;103060.00;;;-2.43;75.07
66703;BME280;60933;46.398;-63.798;2023-11-22T01:48:57;103053.09;;;-2.46;74.31
66703;BME280;60933;46.398;-63.798;2023-11-22T01:51:24;103047.63;;;-2.52;73.99
66703;BME280;60933;46.398;-63.798;2023-11-22T01:53:52;103049.97;;;-2.55;73.82
66703;BME280;60933;46.398;-63.798;2023-11-22T01:56:26;103049.75;;;-2.58;74.28
66703;BME280;60933;46.398;-63.798;2023-11-22T01:58:55;103045.81;;;-2.66;75.33
66703;BME280;60933;46.398;-63.798;2023-11-22T02:01:22;103038.72;;;-2.72;74.85
66703;BME280;60933;46.398;-63.798;2023-11-22T02:03:48;103034.91;;;-2.79;75.30
66703;BME280;60933;46.398;-63.798;2023-11-22T02:06:17;103031.28;;;-2.82;75.69
66703;BME280;60933;46.398;-63.798;2023-11-22T02:08:44;103033.72;;;-2.84;75.51
66703;BME280;60933;46.398;-63.798;2023-11-22T02:11:10;103027.69;;;-2.86;76.40
66703;BME280;60933;46.398;-63.798;2023-11-22T02:13:36;103028.44;;;-2.87;76.69
66703;BME280;60933;46.398;-63.798;2023-11-22T02:16:03;103026.38;;;-2.93;77.15
66703;BME280;60933;46.398;-63.798;2023-11-22T02:18:29;103032.53;;;-2.89;76.22
66703;BME280;60933;46.398;-63.798;2023-11-22T02:20:56;103019.13;;;-2.88;76.56
66703;BME280;60933;46.398;-63.798;2023-11-22T02:23:22;103020.00;;;-2.88;76.23
66703;BME280;60933;46.398;-63.798;2023-11-22T02:25:49;103004.31;;;-2.95;75.89
66703;BME280;60933;46.398;-63.798;2023-11-22T02:28:15;102998.28;;;-2.97;75.53
66703;BME280;60933;46.398;-63.798;2023-11-22T02:30:42;103007.38;;;-2.88;75.19
66703;BME280;60933;46.398;-63.798;2023-11-22T02:33:10;102995.59;;;-2.87;74.77
66703;BME280;60933;46.398;-63.798;2023-11-22T02:35:36;102993.06;;;-2.87;75.39
66703;BME280;60933;46.398;-63.798;2023-11-22T02:38:03;103000.13;;;-2.95;75.07
66703;BME280;60933;46.398;-63.798;2023-11-22T02:40:29;103010.53;;;-2.90;75.20
66703;BME280;60933;46.398;-63.798;2023-11-22T02:42:55;103008.81;;;-2.91;74.65
66703;BME280;60933;46.398;-63.798;2023-11-22T02:45:28;103005.41;;;-2.92;74.69
66703;BME280;60933;46.398;-63.798;2023-11-22T02:47:54;102996.94;;;-2.92;74.58
66703;BME280;60933;46.398;-63.798;2023-11-22T02:50:21;102994.09;;;-2.97;74.81
66703;BME280;60933;46.398;-63.798;2023-11-22T02:52:47;103000.78;;;-2.97;74.28
66703;BME280;60933;46.398;-63.798;2023-11-22T02:55:13;102998.94;;;-3.00;75.02
66703;BME280;60933;46.398;-63.798;2023-11-22T02:57:40;102990.38;;;-3.02;74.27
66703;BME280;60933;46.398;-63.798;2023-11-22T03:00:10;102993.56;;;-3.05;73.82
66703;BME280;60933;46.398;-63.798;2023-11-22T03:02:40;102992.41;;;-3.10;74.07
66703;BME280;60933;46.398;-63.798;2023-11-22T03:05:11;102989.09;;;-3.09;74.89
66703;BME280;60933;46.398;-63.798;2023-11-22T03:07:38;102958.84;;;-3.21;74.98
66703;BME280;60933;46.398;-63.798;2023-11-22T03:10:05;102986.75;;;-3.06;75.25
66703;BME280;60933;46.398;-63.798;2023-11-22T03:12:33;102986.66;;;-3.07;75.62
66703;BME280;60933;46.398;-63.798;2023-11-22T03:15:00;102984.81;;;-3.10;75.51
66703;BME280;60933;46.398;-63.798;2023-11-22T03:17:28;102996.47;;;-3.12;75.14
66703;BME280;60933;46.398;-63.798;2023-11-22T03:19:58;102996.91;;;-3.18;76.78
66703;BME280;60933;46.398;-63.798;2023-11-22T03:22:25;103002.88;;;-3.17;77.68
66703;BME280;60933;46.398;-63.798;2023-11-22T03:24:51;102998.69;;;-3.16;76.85
66703;BME280;60933;46.398;-63.798;2023-11-22T03:27:18;103004.72;;;-3.14;75.98
66703;BME280;60933;46.398;-63.798;2023-11-22T03:29:47;103009.88;;;-3.13;76.18
66703;BME280;60933;46.398;-63.798;2023-11-22T03:32:13;103016.91;;;-3.09;75.71
66703;BME280;60933;46.398;-63.798;2023-11-22T03:34:39;103008.75;;;-3.05;74.94
66703;BME280;60933;46.398;-63.798;2023-11-22T03:37:05;103015.66;;;-3.02;75.39
66703;BME280;60933;46.398;-63.798;2023-11-22T03:39:32;103020.06;;;-2.99;75.41
66703;BME280;60933;46.398;-63.798;2023-11-22T03:41:58;103021.91;;;-2.97;75.03
66703;BME280;60933;46.398;-63.798;2023-11-22T03:44:24;103022.78;;;-2.96;75.14
66703;BME280;60933;46.398;-63.798;2023-11-22T03:46:51;103023.34;;;-3.00;74.66
66703;BME280;60933;46.398;-63.798;2023-11-22T03:49:17;103031.13;;;-2.97;74.56
66703;BME280;60933;46.398;-63.798;2023-11-22T03:51:43;103029.50;;;-2.97;74.80
66703;BME280;60933;46.398;-63.798;2023-11-22T03:54:09;103025.31;;;-2.96;74.10
66703;BME280;60933;46.398;-63.798;2023-11-22T03:56:36;103018.50;;;-2.97;74.20
66703;BME280;60933;46.398;-63.798;2023-11-22T03:59:03;103010.91;;;-2.97;73.31
66703;BME280;60933;46.398;-63.798;2023-11-22T04:01:28;103018.50;;;-2.97;73.42
66703;BME280;60933;46.398;-63.798;2023-11-22T04:03:55;103010.81;;;-2.99;73.48
66703;BME280;60933;46.398;-63.798;2023-11-22T04:06:21;103000.03;;;-2.96;73.15
66703;BME280;60933;46.398;-63.798;2023-11-22T04:08:48;103009.06;;;-3.00;72.89
66703;BME280;60933;46.398;-63.798;2023-11-22T04:11:15;103012.56;;;-2.98;73.12
66703;BME280;60933;46.398;-63.798;2023-11-22T04:13:43;103029.50;;;-2.97;72.93
66703;BME280;60933;46.398;-63.798;2023-11-22T04:16:09;103036.19;;;-2.97;72.61
66703;BME280;60933;46.398;-63.798;2023-11-22T04:18:39;103031.91;;;-2.98;73.06
66703;BME280;60933;46.398;-63.798;2023-11-22T04:21:08;103039.38;;;-3.00;73.60
66703;BME280;60933;46.398;-63.798;2023-11-22T04:23:35;103036.75;;;-3.02;73.91
66703;BME280;60933;46.398;-63.798;2023-11-22T04:26:02;103009.31;;;-3.09;74.09
66703;BME280;60933;46.398;-63.798;2023-11-22T04:28:29;103009.09;;;-3.12;73.78
66703;BME280;60933;46.398;-63.798;2023-11-22T04:30:56;103008.75;;;-3.05;73.57
66703;BME280;60933;46.398;-63.798;2023-11-22T04:33:23;103006.13;;;-3.06;73.42
66703;BME280;60933;46.398;-63.798;2023-11-22T04:35:50;103011.28;;;-3.05;74.40
66703;BME280;60933;46.398;-63.798;2023-11-22T04:38:16;102979.72;;;-3.23;74.89
66703;BME280;60933;46.398;-63.798;2023-11-22T04:40:44;102991.09;;;-3.16;75.32
66703;BME280;60933;46.398;-63.798;2023-11-22T04:43:10;102994.53;;;-3.16;74.82
66703;BME280;60933;46.398;-63.798;2023-11-22T04:45:36;103000.13;;;-3.20;75.38
66703;BME280;60933;46.398;-63.798;2023-11-22T04:48:02;102999.72;;;-3.26;75.18
66703;BME280;60933;46.398;-63.798;2023-11-22T04:50:29;103009.59;;;-3.29;75.29
66703;BME280;60933;46.398;-63.798;2023-11-22T04:52:55;103033.13;;;-3.30;75.49
66703;BME280;60933;46.398;-63.798;2023-11-22T04:55:21;103022.88;;;-3.32;75.86
66703;BME280;60933;46.398;-63.798;2023-11-22T04:57:50;103024.56;;;-3.32;75.27
66703;BME280;60933;46.398;-63.798;2023-11-22T05:00:18;103027.06;;;-3.32;76.42
66703;BME280;60933;46.398;-63.798;2023-11-22T05:02:44;103032.91;;;-3.34;76.11
66703;BME280;60933;46.398;-63.798;2023-11-22T05:05:10;103033.66;;;-3.35;76.43
66703;BME280;60933;46.398;-63.798;2023-11-22T05:07:37;103035.19;;;-3.37;75.60
66703;BME280;60933;46.398;-63.798;2023-11-22T05:10:04;103036.75;;;-3.39;75.79
66703;BME280;60933;46.398;-63.798;2023-11-22T05:12:31;103021.97;;;-3.46;75.69
66703;BME280;60933;46.398;-63.798;2023-11-22T05:14:58;103017.66;;;-3.47;75.91
66703;BME280;60933;46.398;-63.798;2023-11-22T05:17:24;103009.69;;;-3.53;74.97
66703;BME280;60933;46.398;-63.798;2023-11-22T05:19:50;103009.44;;;-3.56;75.72
66703;BME280;60933;46.398;-63.798;2023-11-22T05:22:17;103012.53;;;-3.60;75.37
66703;BME280;60933;46.398;-63.798;2023-11-22T05:24:42;103013.97;;;-3.64;76.27
66703;BME280;60933;46.398;-63.798;2023-11-22T05:27:09;103010.22;;;-3.69;75.98
66703;BME280;60933;46.398;-63.798;2023-11-22T05:29:36;102999.13;;;-3.71;75.81
66703;BME280;60933;46.398;-63.798;2023-11-22T05:32:03;102992.03;;;-3.77;75.86
66703;BME280;60933;46.398;-63.798;2023-11-22T05:34:29;102981.94;;;-3.77;76.70
66703;BME280;60933;46.398;-63.798;2023-11-22T05:36:55;102979.53;;;-3.75;76.91
66703;BME280;60933;46.398;-63.798;2023-11-22T05:39:21;102978.66;;;-3.76;77.37
66703;BME280;60933;46.398;-63.798;2023-11-22T05:41:51;102970.41;;;-3.73;77.60
66703;BME280;60933;46.398;-63.798;2023-11-22T05:44:18;102955.72;;;-3.79;77.30
66703;BME280;60933;46.398;-63.798;2023-11-22T05:46:44;102964.78;;;-3.69;77.25
66703;BME280;60933;46.398;-63.798;2023-11-22T05:49:10;102964.88;;;-3.68;77.99
66703;BME280;60933;46.398;-63.798;2023-11-22T05:51:36;102964.69;;;-3.71;76.91
66703;BME280;60933;46.398;-63.798;2023-11-22T05:54:06;102952.06;;;-3.71;76.23
66703;BME280;60933;46.398;-63.798;2023-11-22T05:56:32;102951.66;;;-3.77;76.44
66703;BME280;60933;46.398;-63.798;2023-11-22T05:58:59;102945.19;;;-3.85;76.15
66703;BME280;60933;46.398;-63.798;2023-11-22T06:01:26;102929.41;;;-3.94;75.92
66703;BME280;60933;46.398;-63.798;2023-11-22T06:03:55;102932.69;;;-3.95;75.14
66703;BME280;60933;46.398;-63.798;2023-11-22T06:06:22;102921.41;;;-4.01;75.20
66703;BME280;60933;46.398;-63.798;2023-11-22T06:08:48;102905.94;;;-4.05;75.55
66703;BME280;60933;46.398;-63.798;2023-11-22T06:11:15;102895.44;;;-4.11;75.65
66703;BME280;60933;46.398;-63.798;2023-11-22T06:13:42;102904.44;;;-4.15;75.42
66703;BME280;60933;46.398;-63.798;2023-11-22T06:16:13;102893.88;;;-4.21;75.61
66703;BME280;60933;46.398;-63.798;2023-11-22T06:18:39;102885.13;;;-4.26;75.66
66703;BME280;60933;46.398;-63.798;2023-11-22T06:21:09;102871.34;;;-4.32;76.08
66703;BME280;60933;46.398;-63.798;2023-11-22T06:23:35;102860.50;;;-4.42;76.46
66703;BME280;60933;46.398;-63.798;2023-11-22T06:26:01;102875.94;;;-4.38;78.00
66703;BME280;60933;46.398;-63.798;2023-11-22T06:28:28;102864.78;;;-4.41;78.84
66703;BME280;60933;46.398;-63.798;2023-11-22T06:30:55;102855.31;;;-4.44;78.54
66703;BME280;60933;46.398;-63.798;2023-11-22T06:33:20;102842.50;;;-4.47;78.79
66703;BME280;60933;46.398;-63.798;2023-11-22T06:35:46;102840.75;;;-4.48;77.72
66703;BME280;60933;46.398;-63.798;2023-11-22T06:38:12;102831.88;;;-4.55;77.04
66703;BME280;60933;46.398;-63.798;2023-11-22T06:40:39;102820.59;;;-4.60;77.20
66703;BME280;60933;46.398;-63.798;2023-11-22T06:43:05;102807.22;;;-4.71;77.04
66703;BME280;60933;46.398;-63.798;2023-11-22T06:45:30;102818.50;;;-4.66;77.99
66703;BME280;60933;46.398;-63.798;2023-11-22T06:48:00;102809.09;;;-4.68;77.20
66703;BME280;60933;46.398;-63.798;2023-11-22T06:50:26;102803.84;;;-4.71;76.77
66703;BME280;60933;46.398;-63.798;2023-11-22T06:52:52;102812.72;;;-4.77;76.74
66703;BME280;60933;46.398;-63.798;2023-11-22T06:55:19;102810.84;;;-4.79;77.29
66703;BME280;60933;46.398;-63.798;2023-11-22T06:57:45;102834.28;;;-4.80;77.36
66703;BME280;60933;46.398;-63.798;2023-11-22T07:00:11;102841.75;;;-4.82;77.04
66703;BME280;60933;46.398;-63.798;2023-11-22T07:02:38;102849.41;;;-4.80;76.57
66703;BME280;60933;46.398;-63.798;2023-11-22T07:05:05;102855.34;;;-4.80;76.39
66703;BME280;60933;46.398;-63.798;2023-11-22T07:07:35;102852.81;;;-4.80;76.53
66703;BME280;60933;46.398;-63.798;2023-11-22T07:10:02;102867.16;;;-4.79;76.79
66703;BME280;60933;46.398;-63.798;2023-11-22T07:12:31;102881.41;;;-4.79;76.43
66703;BME280;60933;46.398;-63.798;2023-11-22T07:15:00;102887.53;;;-4.75;77.02
66703;BME280;60933;46.398;-63.798;2023-11-22T07:17:26;102875.19;;;-4.72;76.49
66703;BME280;60933;46.398;-63.798;2023-11-22T07:19:55;102856.63;;;-4.73;76.55
66703;BME280;60933;46.398;-63.798;2023-11-22T07:22:23;102831.44;;;-4.73;76.37
66703;BME280;60933;46.398;-63.798;2023-11-22T07:24:49;102827.06;;;-4.75;76.84
66703;BME280;60933;46.398;-63.798;2023-11-22T07:27:25;102829.91;;;-4.71;76.93
66703;BME280;60933;46.398;-63.798;2023-11-22T07:29:51;102841.53;;;-4.73;78.27
66703;BME280;60933;46.398;-63.798;2023-11-22T07:32:17;102844.81;;;-4.74;79.31
66703;BME280;60933;46.398;-63.798;2023-11-22T07:34:45;102838.00;;;-4.75;78.91
66703;BME280;60933;46.398;-63.798;2023-11-22T07:37:12;102836.28;;;-4.76;77.91
66703;BME280;60933;46.398;-63.798;2023-11-22T07:39:40;102826.84;;;-4.79;77.36
66703;BME280;60933;46.398;-63.798;2023-11-22T07:42:08;102834.28;;;-4.80;77.09
66703;BME280;60933;46.398;-63.798;2023-11-22T07:44:35;102844.16;;;-4.83;77.25
66703;BME280;60933;46.398;-63.798;2023-11-22T07:47:03;102834.09;;;-4.83;76.82
66703;BME280;60933;46.398;-63.798;2023-11-22T07:49:33;102836.47;;;-4.85;78.03
66703;BME280;60933;46.398;-63.798;2023-11-22T07:52:03;102839.00;;;-4.85;78.27
66703;BME280;60933;46.398;-63.798;2023-11-22T07:54:30;102836.59;;;-4.83;77.88
66703;BME280;60933;46.398;-63.798;2023-11-22T07:56:56;102846.69;;;-4.83;77.47
66703;BME280;60933;46.398;-63.798;2023-11-22T07:59:23;102842.41;;;-4.84;77.35
66703;BME280;60933;46.398;-63.798;2023-11-22T08:01:49;102844.69;;;-4.87;77.13
66703;BME280;60933;46.398;-63.798;2023-11-22T08:04:15;102840.41;;;-4.88;77.59
66703;BME280;60933;46.398;-63.798;2023-11-22T08:06:45;102848.75;;;-4.89;78.37
66703;BME280;60933;46.398;-63.798;2023-11-22T08:09:14;102865.63;;;-4.88;78.10
66703;BME280;60933;46.398;-63.798;2023-11-22T08:11:42;102862.13;;;-4.90;78.10
66703;BME280;60933;46.398;-63.798;2023-11-22T08:14:08;102859.47;;;-4.92;79.14
66703;BME280;60933;46.398;-63.798;2023-11-22T08:16:34;102861.78;;;-4.95;78.42
66703;BME280;60933;46.398;-63.798;2023-11-22T08:19:04;102869.97;;;-4.98;77.71
66703;BME280;60933;46.398;-63.798;2023-11-22T08:21:31;102859.69;;;-5.01;78.96
66703;BME280;60933;46.398;-63.798;2023-11-22T08:23:58;102854.22;;;-5.07;77.74
66703;BME280;60933;46.398;-63.798;2023-11-22T08:26:25;102848.94;;;-5.10;77.63
66703;BME280;60933;46.398;-63.798;2023-11-22T08:28:54;102835.34;;;-5.12;77.09
66703;BME280;60933;46.398;-63.798;2023-11-22T08:31:21;102822.56;;;-5.15;79.04
66703;BME280;60933;46.398;-63.798;2023-11-22T08:33:47;102820.03;;;-5.15;80.66
66703;BME280;60933;46.398;-63.798;2023-11-22T08:36:13;102813.25;;;-5.16;80.07
66703;BME280;60933;46.398;-63.798;2023-11-22T08:38:39;102815.66;;;-5.18;79.98
66703;BME280;60933;46.398;-63.798;2023-11-22T08:41:09;102799.66;;;-5.18;79.61
66703;BME280;60933;46.398;-63.798;2023-11-22T08:43:39;102799.44;;;-5.21;80.28
66703;BME280;60933;46.398;-63.798;2023-11-22T08:46:06;102806.22;;;-5.20;79.00
66703;BME280;60933;46.398;-63.798;2023-11-22T08:48:34;102797.69;;;-5.22;78.66
66703;BME280;60933;46.398;-63.798;2023-11-22T08:51:00;102787.63;;;-5.22;78.32
66703;BME280;60933;46.398;-63.798;2023-11-22T08:53:27;102769.22;;;-5.21;78.53
66703;BME280;60933;46.398;-63.798;2023-11-22T08:55:53;102776.00;;;-5.20;82.43
66703;BME280;60933;46.398;-63.798;2023-11-22T08:58:20;102744.25;;;-5.18;83.22
66703;BME280;60933;46.398;-63.798;2023-11-22T09:00:46;102754.13;;;-5.21;82.98
66703;BME280;60933;46.398;-63.798;2023-11-22T09:03:12;102740.09;;;-5.18;81.52
66703;BME280;60933;46.398;-63.798;2023-11-22T09:05:42;102745.44;;;-5.13;81.17
66703;BME280;60933;46.398;-63.798;2023-11-22T09:08:09;102737.25;;;-5.11;83.77
66703;BME280;60933;46.398;-63.798;2023-11-22T09:10:44;102723.91;;;-5.10;86.24
66703;BME280;60933;46.398;-63.798;2023-11-22T09:13:10;102722.25;;;-5.09;84.89
66703;BME280;60933;46.398;-63.798;2023-11-22T09:15:37;102721.25;;;-5.11;83.42
66703;BME280;60933;46.398;-63.798;2023-11-22T09:18:05;102726.53;;;-5.08;82.27
66703;BME280;60933;46.398;-63.798;2023-11-22T09:20:32;102722.91;;;-5.12;81.98
66703;BME280;60933;46.398;-63.798;2023-11-22T09:22:58;102738.34;;;-5.07;82.03
66703;BME280;60933;46.398;-63.798;2023-11-22T09:25:25;102739.97;;;-5.07;81.47
66703;BME280;60933;46.398;-63.798;2023-11-22T09:27:53;102738.44;;;-5.05;80.50
66703;BME280;60933;46.398;-63.798;2023-11-22T09:30:28;102743.41;;;-5.07;80.32
66703;BME280;60933;46.398;-63.798;2023-11-22T09:33:06;102748.53;;;-5.05;80.14
66703;BME280;60933;46.398;-63.798;2023-11-22T09:35:33;102757.84;;;-5.04;79.58
66703;BME280;60933;46.398;-63.798;2023-11-22T09:38:00;102743.59;;;-5.04;79.84
66703;BME280;60933;46.398;-63.798;2023-11-22T09:40:27;102748.63;;;-5.04;80.32
66703;BME280;60933;46.398;-63.798;2023-11-22T09:43:04;102746.09;;;-5.04;79.49
66703;BME280;60933;46.398;-63.798;2023-11-22T09:45:31;102742.72;;;-5.04;79.35
66703;BME280;60933;46.398;-63.798;2023-11-22T09:47:57;102741.06;;;-5.04;79.60
66703;BME280;60933;46.398;-63.798;2023-11-22T09:50:50;102727.53;;;-5.06;80.45
66703;BME280;60933;46.398;-63.798;2023-11-22T09:53:53;102699.69;;;-5.07;80.18
66703;BME280;60933;46.398;-63.798;2023-11-22T09:56:24;102692.56;;;-5.13;80.03
66703;BME280;60933;46.398;-63.798;2023-11-22T09:58:55;102703.97;;;-5.06;79.73
66703;BME280;60933;46.398;-63.798;2023-11-22T10:01:23;102705.72;;;-5.05;79.68
66703;BME280;60933;46.398;-63.798;2023-11-22T10:03:49;102701.44;;;-5.06;80.04
66703;BME280;60933;46.398;-63.798;2023-11-22T10:06:17;102710.84;;;-5.04;79.55
66703;BME280;60933;46.398;-63.798;2023-11-22T10:08:44;102710.09;;;-5.03;79.55
66703;BME280;60933;46.398;-63.798;2023-11-22T10:11:15;102705.06;;;-5.03;79.28
66703;BME280;60933;46.398;-63.798;2023-11-22T10:13:48;102698.25;;;-5.04;79.55
66703;BME280;60933;46.398;-63.798;2023-11-22T10:16:14;102700.91;;;-5.02;79.52
66703;BME280;60933;46.398;-63.798;2023-11-22T10:18:47;102695.88;;;-5.02;80.04
66703;BME280;60933;46.398;-63.798;2023-11-22T10:21:24;102710.31;;;-5.00;80.41
66703;BME280;60933;46.398;-63.798;2023-11-22T10:23:57;102710.31;;;-5.00;79.57
66703;BME280;60933;46.398;-63.798;2023-11-22T10:26:26;102721.16;;;-5.01;79.15
66703;BME280;60933;46.398;-63.798;2023-11-22T10:28:55;102721.25;;;-4.99;79.76
66703;BME280;60933;46.398;-63.798;2023-11-22T10:31:23;102727.19;;;-4.99;80.38
66703;BME280;60933;46.398;-63.798;2023-11-22T10:33:50;102717.09;;;-4.99;80.08
66703;BME280;60933;46.398;-63.798;2023-11-22T10:36:19;102705.47;;;-4.97;80.09
66703;BME280;60933;46.398;-63.798;2023-11-22T10:38:47;102670.44;;;-5.05;80.76
66703;BME280;60933;46.398;-63.798;2023-11-22T10:41:13;102671.88;;;-4.97;80.82
66703;BME280;60933;46.398;-63.798;2023-11-22T10:43:40;102654.13;;;-4.99;79.70
66703;BME280;60933;46.398;-63.798;2023-11-22T10:46:12;102658.94;;;-4.90;79.74
66703;BME280;60933;46.398;-63.798;2023-11-22T10:48:39;102650.78;;;-4.86;79.50
66703;BME280;60933;46.398;-63.798;2023-11-22T10:51:05;102657.72;;;-4.83;80.43
66703;BME280;60933;46.398;-63.798;2023-11-22T10:53:33;102674.56;;;-4.82;80.27
66703;BME280;60933;46.398;-63.798;2023-11-22T10:56:20;102687.38;;;-4.79;80.15
66703;BME280;60933;46.398;-63.798;2023-11-22T10:58:55;102689.13;;;-4.78;79.54
66703;BME280;60933;46.398;-63.798;2023-11-22T11:01:27;102694.19;;;-4.78;79.56
66703;BME280;60933;46.398;-63.798;2023-11-22T11:04:01;102672.84;;;-4.83;79.93
66703;BME280;60933;46.398;-63.798;2023-11-22T11:06:39;102674.34;;;-4.73;80.07
66703;BME280;60933;46.398;-63.798;2023-11-22T11:09:10;102660.22;;;-4.71;80.27
66703;BME280;60933;46.398;-63.798;2023-11-22T11:11:37;102651.97;;;-4.69;80.32
66703;BME280;60933;46.398;-63.798;2023-11-22T11:14:08;102648.69;;;-4.68;79.50
66703;BME280;60933;46.398;-63.798;2023-11-22T11:16:38;102647.13;;;-4.66;80.44
66703;BME280;60933;46.398;-63.798;2023-11-22T11:19:08;102657.44;;;-4.63;79.77
66703;BME280;60933;46.398;-63.798;2023-11-22T11:21:36;102645.69;;;-4.62;80.40
66703;BME280;60933;46.398;-63.798;2023-11-22T11:24:03;102659.38;;;-4.58;79.64
66703;BME280;60933;46.398;-63.798;2023-11-22T11:26:32;102652.81;;;-4.56;80.31
66703;BME280;60933;46.398;-63.798;2023-11-22T11:29:01;102654.56;;;-4.55;79.96
66703;BME280;60933;46.398;-63.798;2023-11-22T11:31:33;102653.88;;;-4.53;80.22
66703;BME280;60933;46.398;-63.798;2023-11-22T11:34:05;102644.69;;;-4.52;80.31
66703;BME280;60933;46.398;-63.798;2023-11-22T11:36:33;102648.16;;;-4.50;80.15
66703;BME280;60933;46.398;-63.798;2023-11-22T11:39:06;102633.72;;;-4.53;80.74
66703;BME280;60933;46.398;-63.798;2023-11-22T11:41:41;102627.47;;;-4.46;79.99
66703;BME280;60933;46.398;-63.798;2023-11-22T11:44:08;102619.97;;;-4.45;81.18
66703;BME280;60933;46.398;-63.798;2023-11-22T11:46:37;102612.50;;;-4.43;80.28
66703;BME280;60933;46.398;-63.798;2023-11-22T11:49:07;102601.75;;;-4.40;80.45
66703;BME280;60933;46.398;-63.798;2023-11-22T11:51:34;102599.53;;;-4.36;80.78
66703;BME280;60933;46.398;-63.798;2023-11-22T11:54:01;102608.97;;;-4.33;80.52
66703;BME280;60933;46.398;-63.798;2023-11-22T11:56:27;102622.66;;;-4.30;80.91
66703;BME280;60933;46.398;-63.798;2023-11-22T11:58:56;102633.94;;;-4.24;79.70
66703;BME280;60933;46.398;-63.798;2023-11-22T12:01:28;102636.63;;;-4.21;80.38
66703;BME280;60933;46.398;-63.798;2023-11-22T12:04:00;102621.72;;;-4.18;81.92
66703;BME280;60933;46.398;-63.798;2023-11-22T12:06:30;102616.00;;;-4.16;82.52
66703;BME280;60933;46.398;-63.798;2023-11-22T12:09:02;102604.16;;;-4.17;82.33
66703;BME280;60933;46.398;-63.798;2023-11-22T12:11:29;102606.97;;;-4.12;82.54
66703;BME280;60933;46.398;-63.798;2023-11-22T12:13:56;102615.91;;;-4.04;82.48
66703;BME280;60933;46.398;-63.798;2023-11-22T12:16:24;102601.84;;;-4.00;82.35
66703;BME280;60933;46.398;-63.798;2023-11-22T12:18:53;102597.19;;;-3.94;82.05
66703;BME280;60933;46.398;-63.798;2023-11-22T12:21:20;102580.81;;;-3.87;82.80
66703;BME280;60933;46.398;-63.798;2023-11-22T12:23:47;102577.69;;;-3.83;82.30
66703;BME280;60933;46.398;-63.798;2023-11-22T12:26:16;102580.66;;;-3.77;82.80
66703;BME280;60933;46.398;-63.798;2023-11-22T12:28:47;102576.16;;;-3.68;83.28
66703;BME280;60933;46.398;-63.798;2023-11-22T12:31:15;102573.91;;;-3.63;83.27
66703;BME280;60933;46.398;-63.798;2023-11-22T12:33:42;102580.16;;;-3.58;83.35